createdAt,value
2018-04-02T00:02:03.224Z,4.00
2018-04-02T00:04:32.097Z,4.00
2018-04-02T00:07:00.990Z,4.00
2018-04-02T00:09:29.897Z,4.00
2018-04-02T00:11:58.020Z,4.00
2018-04-02T00:14:26.147Z,4.00
2018-04-02T00:16:54.406Z,3.90
2018-04-02T00:19:23.319Z,3.90
2018-04-02T00:21:51.434Z,3.90
2018-04-02T00:24:19.605Z,3.90
2018-04-02T00:26:47.724Z,3.80
2018-04-02T00:29:15.885Z,3.80
2018-04-02T00:31:44.777Z,3.80
2018-04-02T00:34:12.914Z,3.80
2018-04-02T00:36:41.096Z,3.80
2018-04-02T00:41:43.775Z,3.90
2018-04-02T00:44:11.900Z,3.90
2018-04-02T00:46:40.781Z,4.00
2018-04-02T00:49:09.644Z,4.10
2018-04-02T00:51:37.784Z,4.10
2018-04-02T00:54:05.907Z,4.20
2018-04-02T00:56:34.027Z,4.30
2018-04-02T00:59:02.357Z,4.40
2018-04-02T01:01:31.250Z,4.60
2018-04-02T01:04:00.120Z,4.70
2018-04-02T01:06:28.268Z,4.70
2018-04-02T01:08:56.400Z,4.80
2018-04-02T01:11:25.450Z,4.80
2018-04-02T01:13:53.765Z,4.80
2018-04-02T01:16:21.915Z,4.80
2018-04-02T01:18:50.089Z,4.90
2018-04-02T01:21:18.417Z,5.00
2018-04-02T01:23:47.418Z,5.00
2018-04-02T01:26:15.634Z,5.10
2018-04-02T01:28:43.778Z,5.10
2018-04-02T01:31:11.903Z,5.10
2018-04-02T01:33:40.787Z,5.10
2018-04-02T01:36:09.689Z,5.10
2018-04-02T01:38:38.583Z,5.20
2018-04-02T01:41:07.466Z,5.20
2018-04-02T01:43:36.365Z,5.20
2018-04-02T01:46:05.091Z,5.20
2018-04-02T01:48:33.207Z,5.20
2018-04-02T01:51:02.102Z,5.20
2018-04-02T01:53:31.073Z,5.20
2018-04-02T01:55:59.190Z,5.20
2018-04-02T01:58:27.350Z,5.20
2018-04-02T02:00:55.632Z,5.30
2018-04-02T02:03:24.547Z,5.20
2018-04-02T02:05:52.741Z,5.20
2018-04-02T02:08:20.854Z,5.20
2018-04-02T02:10:49.831Z,5.20
2018-04-02T02:13:17.970Z,5.20
2018-04-02T02:15:46.172Z,5.20
2018-04-02T02:18:14.292Z,5.20
2018-04-02T02:20:42.441Z,5.10
2018-04-02T02:23:10.558Z,5.10
2018-04-02T02:25:39.194Z,5.00
2018-04-02T02:28:07.474Z,5.00
2018-04-02T02:30:36.408Z,5.00
2018-04-02T02:33:04.532Z,5.00
2018-04-02T02:35:32.698Z,5.00
2018-04-02T02:38:00.813Z,5.00
2018-04-02T02:40:28.924Z,4.90
2018-04-02T02:42:57.154Z,4.90
2018-04-02T02:45:25.274Z,4.90
2018-04-02T02:47:53.403Z,4.90
2018-04-02T02:50:22.282Z,5.00
2018-04-02T02:52:50.420Z,5.00
2018-04-02T02:55:18.535Z,5.10
2018-04-02T02:57:46.675Z,5.20
2018-04-02T03:00:14.948Z,5.30
2018-04-02T03:02:43.177Z,5.40
2018-04-02T03:05:11.357Z,5.50
2018-04-02T03:07:39.946Z,5.60
2018-04-02T03:10:08.158Z,5.60
2018-04-02T03:12:36.515Z,5.70
2018-04-02T03:15:04.668Z,5.70
2018-04-02T03:17:32.828Z,5.80
2018-04-02T03:20:00.935Z,5.80
2018-04-02T03:22:29.070Z,5.80
2018-04-02T03:24:57.185Z,5.90
2018-04-02T03:27:25.330Z,6.00
2018-04-02T03:29:53.460Z,6.10
2018-04-02T03:32:22.342Z,6.40
2018-04-02T03:34:51.257Z,6.40
2018-04-02T03:37:19.386Z,6.30
2018-04-02T03:39:47.543Z,6.50
2018-04-02T03:42:16.612Z,6.50
2018-04-02T03:44:44.731Z,6.50
2018-04-02T03:47:12.848Z,6.50
2018-04-02T03:49:41.174Z,6.40
2018-04-02T03:52:09.340Z,6.40
2018-04-02T03:54:37.459Z,6.40
2018-04-02T03:57:06.429Z,6.30
2018-04-02T03:59:34.557Z,6.30
2018-04-02T04:02:02.720Z,6.30
2018-04-02T04:04:30.868Z,6.30
2018-04-02T04:07:00.188Z,6.40
2018-04-02T04:09:28.323Z,6.40
2018-04-02T04:11:56.462Z,6.50
2018-04-02T04:14:24.585Z,6.60
2018-04-02T04:16:53.900Z,6.60
2018-04-02T04:19:22.773Z,6.50
2018-04-02T04:21:50.881Z,6.50
2018-04-02T04:24:19.000Z,6.60
2018-04-02T04:26:47.145Z,6.60
2018-04-02T04:29:15.252Z,6.60
2018-04-02T04:31:44.142Z,6.50
2018-04-02T04:34:12.277Z,6.50
2018-04-02T04:36:40.473Z,6.50
2018-04-02T04:39:08.600Z,6.50
2018-04-02T04:41:36.704Z,6.50
2018-04-02T04:44:05.449Z,6.60
2018-04-02T04:46:34.335Z,6.60
2018-04-02T04:49:03.297Z,6.70
2018-04-02T04:51:31.426Z,6.70
2018-04-02T04:53:59.541Z,6.70
2018-04-02T04:56:27.907Z,6.60
2018-04-02T04:58:56.024Z,6.60
2018-04-02T05:01:24.142Z,6.70
2018-04-02T05:03:52.423Z,6.70
2018-04-02T05:06:20.816Z,6.60
2018-04-02T05:08:48.969Z,6.60
2018-04-02T05:11:17.390Z,6.60
2018-04-02T05:13:45.485Z,6.60
2018-04-02T05:16:13.636Z,6.60
2018-04-02T05:18:42.680Z,6.50
2018-04-02T05:21:10.784Z,6.50
2018-04-02T05:23:38.966Z,6.50
2018-04-02T05:26:07.094Z,6.40
2018-04-02T05:28:35.212Z,6.40
2018-04-02T05:31:03.343Z,6.40
2018-04-02T05:33:31.677Z,6.40
2018-04-02T05:35:59.791Z,6.50
2018-04-02T05:38:28.079Z,6.50
2018-04-02T05:40:56.217Z,6.60
2018-04-02T05:43:24.381Z,6.70
2018-04-02T05:45:53.638Z,6.70
2018-04-02T05:48:21.799Z,6.90
2018-04-02T05:50:49.993Z,6.90
2018-04-02T05:53:18.113Z,7.00
2018-04-02T05:55:47.019Z,7.10
2018-04-02T05:58:15.141Z,7.10
2018-04-02T06:00:43.252Z,7.10
2018-04-02T06:03:11.374Z,7.20
2018-04-02T06:05:39.584Z,7.10
2018-04-02T06:08:08.546Z,7.10
2018-04-02T06:10:36.737Z,7.10
2018-04-02T06:13:05.604Z,7.20
2018-04-02T06:15:33.714Z,7.20
2018-04-02T06:18:02.605Z,7.30
2018-04-02T06:20:31.674Z,7.40
2018-04-02T06:22:59.805Z,7.40
2018-04-02T06:25:27.949Z,7.50
2018-04-02T06:27:56.821Z,7.60
2018-04-02T06:30:25.094Z,7.70
2018-04-02T06:32:53.270Z,7.80
2018-04-02T06:35:22.279Z,8.00
2018-04-02T06:37:51.151Z,8.10
2018-04-02T06:40:19.318Z,8.10
2018-04-02T06:42:47.434Z,8.30
2018-04-02T06:45:16.494Z,8.30
2018-04-02T06:47:44.968Z,8.40
2018-04-02T06:50:13.168Z,8.40
2018-04-02T06:52:42.041Z,8.40
2018-04-02T06:55:10.967Z,8.40
2018-04-02T06:57:39.087Z,8.40
2018-04-02T07:00:07.232Z,8.40
2018-04-02T07:02:35.427Z,8.40
2018-04-02T07:05:03.683Z,8.50
2018-04-02T07:07:31.796Z,8.50
2018-04-02T07:10:00.005Z,8.60
2018-04-02T07:12:28.252Z,8.60
2018-04-02T07:15:01.069Z,8.60
2018-04-02T07:17:29.206Z,8.60
2018-04-02T07:19:58.134Z,8.70
2018-04-02T07:22:26.375Z,8.70
2018-04-02T07:24:54.513Z,8.80
2018-04-02T07:27:22.638Z,8.90
2018-04-02T07:29:50.786Z,9.00
2018-04-02T07:32:19.847Z,9.10
2018-04-02T07:34:47.974Z,9.10
2018-04-02T07:37:17.040Z,9.30
2018-04-02T07:39:45.366Z,9.30
2018-04-02T07:42:13.591Z,9.40
2018-04-02T08:02:09.125Z,9.70
2018-04-02T08:04:39.690Z,9.70
2018-04-02T08:07:09.496Z,9.70
2018-04-02T08:09:38.380Z,9.90
2018-04-02T08:12:07.284Z,10.00
2018-04-02T08:14:35.412Z,9.90
2018-04-02T08:17:03.538Z,10.00
2018-04-02T08:19:31.881Z,10.10
2018-04-02T08:22:00.801Z,10.20
2018-04-02T08:24:28.940Z,10.20
2018-04-02T08:26:57.091Z,10.40
2018-04-02T08:29:25.252Z,10.60
2018-04-02T08:31:53.541Z,10.70
2018-04-02T08:34:21.885Z,10.90
2018-04-02T08:36:50.159Z,11.10
2018-04-02T08:39:18.414Z,11.30
2018-04-02T08:41:46.589Z,11.40
2018-04-02T08:44:14.754Z,11.70
2018-04-02T08:46:43.813Z,11.90
2018-04-02T08:49:11.937Z,11.90
2018-04-02T08:51:40.052Z,11.90
2018-04-02T08:54:08.262Z,12.10
2018-04-02T08:56:37.149Z,12.20
2018-04-02T08:59:06.233Z,12.40
2018-04-02T09:01:34.396Z,12.40
2018-04-02T09:04:02.782Z,12.70
2018-04-02T09:06:30.918Z,12.70
2018-04-02T09:08:59.144Z,12.90
2018-04-02T09:11:27.279Z,12.90
2018-04-02T09:13:55.414Z,12.90
2018-04-02T09:16:23.602Z,12.90
2018-04-02T09:18:51.832Z,13.20
2018-04-02T09:21:20.728Z,13.70
2018-04-02T09:23:50.366Z,13.70
2018-04-02T09:26:18.677Z,13.70
2018-04-02T09:28:46.804Z,13.70
2018-04-02T09:31:14.951Z,13.70
2018-04-02T09:33:43.221Z,13.50
2018-04-02T09:36:11.380Z,13.40
2018-04-02T09:38:40.298Z,13.50
2018-04-02T09:41:09.377Z,13.50
2018-04-02T09:43:37.561Z,13.50
2018-04-02T09:46:05.674Z,13.30
2018-04-02T09:48:33.791Z,13.30
2018-04-02T09:51:01.956Z,13.40
2018-04-02T09:53:30.070Z,13.30
2018-04-02T09:55:58.956Z,13.70
2018-04-02T09:58:27.858Z,13.50
2018-04-02T10:01:00.807Z,13.70
2018-04-02T10:03:34.556Z,13.60
2018-04-02T10:06:02.657Z,13.90
2018-04-02T10:08:30.818Z,13.80
2018-04-02T10:10:59.047Z,13.60
2018-04-02T10:13:27.174Z,13.60
2018-04-02T10:15:55.322Z,13.50
2018-04-02T10:18:23.455Z,13.40
2018-04-02T10:20:52.297Z,13.50
2018-04-02T10:23:20.430Z,13.80
2018-04-02T10:25:48.549Z,14.10
2018-04-02T10:28:16.808Z,14.30
2018-04-02T10:30:45.145Z,14.30
2018-04-02T10:33:13.258Z,14.40
2018-04-02T10:35:41.620Z,14.40
2018-04-02T10:38:11.147Z,14.50
2018-04-02T10:40:39.342Z,14.50
2018-04-02T10:43:07.458Z,14.60
2018-04-02T10:45:37.129Z,15.10
2018-04-02T10:48:05.290Z,15.10
2018-04-02T10:50:33.394Z,14.90
2018-04-02T10:53:02.595Z,14.60
2018-04-02T10:55:31.535Z,14.50
2018-04-02T10:57:59.742Z,14.50
2018-04-02T11:00:27.870Z,14.90
2018-04-02T11:02:56.775Z,15.20
2018-04-02T11:05:24.909Z,15.20
2018-04-02T11:07:53.040Z,15.60
2018-04-02T11:10:21.163Z,15.50
2018-04-02T11:12:49.404Z,15.40
2018-04-02T11:15:18.434Z,15.50
2018-04-02T11:17:46.751Z,15.50
2018-04-02T11:20:14.906Z,15.60
2018-04-02T11:22:43.090Z,15.60
2018-04-02T11:25:11.547Z,15.50
2018-04-02T11:27:39.665Z,15.50
2018-04-02T11:30:07.806Z,15.70
2018-04-02T11:32:36.103Z,15.70
2018-04-02T11:35:04.400Z,15.80
2018-04-02T11:37:32.521Z,15.90
2018-04-02T11:40:01.421Z,16.10
2018-04-02T11:42:29.568Z,16.00
2018-04-02T11:44:57.673Z,16.30
2018-04-02T11:47:25.926Z,16.60
2018-04-02T11:49:54.829Z,16.70
2018-04-02T11:52:22.975Z,16.70
2018-04-02T11:54:51.088Z,16.70
2018-04-02T11:57:19.204Z,16.80
2018-04-02T11:59:47.337Z,16.50
2018-04-02T12:02:15.566Z,16.20
2018-04-02T12:04:43.865Z,15.90
2018-04-02T12:07:11.974Z,15.50
2018-04-02T12:09:40.097Z,15.40
2018-04-02T12:12:08.309Z,15.40
2018-04-02T12:14:36.432Z,15.60
2018-04-02T12:17:04.730Z,16.10
2018-04-02T12:19:33.623Z,17.20
2018-04-02T12:22:01.750Z,17.20
2018-04-02T12:24:29.884Z,17.50
2018-04-02T12:26:58.056Z,17.50
2018-04-02T12:29:26.755Z,17.40
2018-04-02T12:31:55.740Z,17.10
2018-04-02T12:34:24.008Z,17.10
2018-04-02T12:36:52.902Z,16.80
2018-04-02T12:39:21.736Z,16.80
2018-04-02T12:41:49.952Z,16.80
2018-04-02T12:44:18.396Z,16.80
2018-04-02T12:46:46.732Z,16.80
2018-04-02T12:49:14.853Z,17.10
2018-04-02T12:51:44.578Z,17.50
2018-04-02T12:54:12.699Z,17.50
2018-04-02T12:56:40.839Z,17.90
2018-04-02T12:59:09.020Z,18.20
2018-04-02T13:01:38.042Z,17.80
2018-04-02T13:04:06.979Z,17.80
2018-04-02T13:06:35.114Z,17.60
2018-04-02T13:09:04.229Z,17.30
2018-04-02T13:11:32.365Z,17.20
2018-04-02T13:14:00.481Z,17.00
2018-04-02T13:16:28.625Z,17.20
2018-04-02T13:18:56.749Z,17.20
2018-04-02T13:21:25.806Z,17.40
2018-04-02T13:23:53.954Z,17.40
2018-04-02T13:26:22.077Z,17.30
2018-04-02T13:28:50.208Z,17.20
2018-04-02T13:31:18.430Z,17.00
2018-04-02T13:33:46.554Z,17.00
2018-04-02T13:36:14.676Z,17.20
2018-04-02T13:38:42.800Z,17.20
2018-04-02T13:41:10.963Z,17.10
2018-04-02T13:43:39.416Z,17.10
2018-04-02T13:46:08.499Z,16.90
2018-04-02T13:48:36.620Z,16.90
2018-04-02T13:51:04.957Z,16.70
2018-04-02T13:53:33.100Z,16.70
2018-04-02T13:56:01.401Z,16.50
2018-04-02T13:58:30.289Z,16.50
2018-04-02T14:00:58.563Z,16.50
2018-04-02T14:03:26.707Z,16.50
2018-04-02T14:05:54.945Z,16.50
2018-04-02T14:08:23.821Z,16.60
2018-04-02T14:10:52.789Z,16.50
2018-04-02T14:13:20.869Z,16.50
2018-04-02T14:15:49.012Z,16.40
2018-04-02T14:18:17.207Z,16.40
2018-04-02T14:20:45.333Z,16.50
2018-04-02T14:23:13.492Z,16.70
2018-04-02T14:25:41.660Z,16.90
2018-04-02T14:28:10.662Z,17.50
2018-04-02T14:30:38.771Z,17.40
2018-04-02T14:33:07.114Z,17.60
2018-04-02T14:35:35.329Z,17.70
2018-04-02T14:38:03.872Z,17.70
2018-04-02T14:40:31.978Z,17.70
2018-04-02T14:43:04.354Z,17.70
2018-04-02T14:45:32.507Z,17.40
2018-04-02T14:48:01.446Z,17.50
2018-04-02T14:50:29.755Z,17.50
2018-04-02T14:52:58.776Z,17.50
2018-04-02T14:55:27.002Z,17.40
2018-04-02T14:57:55.341Z,17.30
2018-04-02T15:00:23.471Z,17.30
2018-04-02T15:02:51.591Z,17.20
2018-04-02T15:05:19.726Z,17.40
2018-04-02T15:07:47.835Z,17.60
2018-04-02T15:10:15.962Z,17.70
2018-04-02T15:12:44.172Z,17.70
2018-04-02T15:15:12.461Z,17.60
2018-04-02T15:17:40.576Z,17.50
2018-04-02T15:20:08.791Z,17.50
2018-04-02T15:22:36.910Z,17.40
2018-04-02T15:25:05.059Z,17.30
2018-04-02T15:27:33.474Z,17.20
2018-04-02T15:30:02.514Z,17.00
2018-04-02T15:32:31.279Z,17.00
2018-04-02T15:34:59.385Z,16.90
2018-04-02T15:37:27.510Z,16.90
2018-04-02T15:39:55.626Z,16.90
2018-04-02T15:42:23.754Z,16.80
2018-04-02T15:44:52.142Z,16.60
2018-04-02T15:47:20.422Z,16.50
2018-04-02T15:49:48.546Z,16.60
2018-04-02T15:52:16.665Z,16.70
2018-04-02T15:54:44.791Z,16.90
2018-04-02T15:57:13.012Z,17.00
2018-04-02T15:59:41.229Z,17.00
2018-04-02T16:02:09.383Z,16.90
2018-04-02T16:04:37.501Z,16.90
2018-04-02T16:07:05.764Z,16.80
2018-04-02T16:09:33.900Z,16.70
2018-04-02T16:12:02.026Z,16.60
2018-04-02T16:14:30.135Z,16.40
2018-04-02T16:16:58.282Z,16.20
2018-04-02T16:19:27.283Z,15.90
2018-04-02T16:21:55.410Z,15.90
2018-04-02T16:24:23.613Z,15.70
2018-04-02T16:26:52.500Z,15.20
2018-04-02T16:29:20.619Z,15.20
2018-04-02T16:31:48.862Z,14.90
2018-04-02T16:34:17.762Z,14.40
2018-04-02T16:36:45.876Z,14.40
2018-04-02T16:39:13.976Z,14.20
2018-04-02T16:41:42.112Z,14.00
2018-04-02T16:44:10.228Z,13.80
2018-04-02T16:46:39.317Z,13.70
2018-04-02T16:49:07.636Z,13.70
2018-04-02T16:51:35.733Z,13.70
2018-04-02T16:54:03.848Z,13.70
2018-04-02T16:56:31.979Z,13.60
2018-04-02T16:59:00.140Z,13.60
2018-04-02T17:01:28.734Z,13.70
2018-04-02T17:03:56.938Z,13.70
2018-04-02T17:06:25.117Z,13.60
2018-04-02T17:08:53.258Z,13.70
2018-04-02T17:11:21.366Z,13.70
2018-04-02T17:13:50.257Z,13.60
2018-04-02T17:16:18.372Z,13.60
2018-04-02T17:18:46.513Z,13.60
2018-04-02T17:21:15.398Z,13.60
2018-04-02T17:23:44.284Z,13.60
2018-04-02T17:26:12.480Z,13.60
2018-04-02T17:28:41.341Z,13.60
2018-04-02T17:31:09.614Z,13.60
2018-04-02T17:33:37.774Z,13.70
2018-04-02T17:36:05.894Z,13.70
2018-04-02T17:38:34.799Z,13.60
2018-04-02T17:41:02.934Z,13.50
2018-04-02T17:43:31.064Z,13.40
2018-04-02T17:45:59.195Z,13.30
2018-04-02T17:48:27.313Z,13.20
2018-04-02T17:50:55.445Z,13.20
2018-04-02T17:53:24.329Z,13.10
2018-04-02T17:55:52.480Z,13.00
2018-04-02T17:58:20.583Z,13.00
2018-04-02T18:00:48.688Z,13.00
2018-04-02T18:03:16.822Z,13.00
2018-04-02T18:05:44.943Z,12.90
2018-04-02T18:08:13.056Z,12.90
2018-04-02T18:10:41.949Z,12.90
2018-04-02T18:13:10.059Z,12.90
2018-04-02T18:15:38.166Z,12.80
2018-04-02T18:18:06.278Z,12.80
2018-04-02T18:20:35.270Z,12.90
2018-04-02T18:23:04.158Z,12.90
2018-04-02T18:25:32.745Z,12.90
2018-04-02T18:28:01.679Z,12.90
2018-04-02T18:30:29.769Z,12.80
2018-04-02T18:32:57.929Z,12.80
2018-04-02T18:35:26.090Z,12.80
2018-04-02T18:37:54.230Z,12.90
2018-04-02T18:40:23.129Z,12.80
2018-04-02T18:42:51.368Z,12.80
2018-04-02T18:45:19.527Z,12.70
2018-04-02T18:47:47.642Z,12.70
2018-04-02T18:50:16.641Z,12.60
2018-04-02T18:52:44.778Z,12.60
2018-04-02T18:55:12.921Z,12.70
2018-04-02T18:57:41.151Z,12.70
2018-04-02T19:00:10.954Z,12.80
2018-04-02T19:02:40.040Z,12.80
2018-04-02T19:05:08.143Z,12.80
2018-04-02T19:07:37.199Z,12.70
2018-04-02T19:10:05.366Z,12.70
2018-04-02T19:12:33.572Z,12.70
2018-04-02T19:15:02.471Z,12.70
2018-04-02T19:17:31.364Z,12.70
2018-04-02T19:19:59.487Z,12.70
2018-04-02T19:22:27.698Z,12.70
2018-04-02T19:24:56.610Z,12.60
2018-04-02T19:27:24.719Z,12.60
2018-04-02T19:29:52.842Z,12.60
2018-04-02T19:32:21.750Z,12.50
2018-04-02T19:34:49.866Z,12.50
2018-04-02T19:37:17.980Z,12.50
2018-04-02T19:39:46.159Z,12.50
2018-04-02T19:42:14.266Z,12.60
2018-04-02T19:44:42.377Z,12.50
2018-04-02T19:47:11.338Z,12.50
2018-04-02T19:49:39.561Z,12.50
2018-04-02T19:52:08.489Z,12.50
2018-04-02T19:54:36.835Z,12.50
2018-04-02T19:57:05.731Z,12.40
2018-04-02T19:59:34.016Z,12.40
2018-04-02T20:02:02.245Z,12.40
2018-04-02T20:04:30.380Z,12.40
2018-04-02T20:06:58.610Z,12.40
2018-04-02T20:09:27.505Z,12.60
2018-04-02T20:11:56.441Z,12.60
2018-04-02T20:14:24.733Z,12.60
2018-04-02T20:16:53.042Z,12.50
2018-04-02T20:19:22.745Z,12.50
2018-04-02T20:21:50.899Z,12.50
2018-04-02T20:24:19.032Z,12.40
2018-04-02T20:26:47.158Z,12.50
2018-04-02T20:29:15.294Z,12.40
2018-04-02T20:31:43.418Z,12.40
2018-04-02T20:34:11.653Z,12.30
2018-04-02T20:36:40.030Z,12.30
2018-04-02T20:39:08.285Z,12.40
2018-04-02T20:41:36.571Z,12.40
2018-04-02T20:44:04.814Z,12.40
2018-04-02T20:46:33.836Z,12.30
2018-04-02T20:49:02.317Z,12.30
2018-04-02T20:51:30.422Z,12.30
2018-04-02T20:53:58.580Z,12.30
2018-04-02T20:56:26.721Z,12.30
2018-04-02T20:58:54.833Z,12.30
2018-04-02T21:01:23.055Z,12.20
2018-04-02T21:03:51.943Z,12.20
2018-04-02T21:06:20.969Z,12.20
2018-04-02T21:08:49.114Z,12.10
2018-04-02T21:11:17.341Z,12.20
2018-04-02T21:13:45.686Z,12.20
2018-04-02T21:16:13.815Z,12.20
2018-04-02T21:18:42.206Z,12.10
2018-04-02T21:21:11.140Z,12.10
2018-04-02T21:23:39.278Z,12.10
2018-04-02T21:26:07.398Z,12.00
2018-04-02T21:28:35.554Z,11.90
2018-04-02T21:31:03.636Z,11.90
2018-04-02T21:33:31.765Z,11.80
2018-04-02T21:36:00.661Z,11.80
2018-04-02T21:38:30.274Z,11.70
2018-04-02T21:40:59.138Z,11.70
2018-04-02T21:43:28.755Z,11.60
2018-04-02T21:45:57.810Z,11.60
2018-04-02T21:48:25.923Z,11.50
2018-04-02T21:50:54.157Z,11.50
2018-04-02T21:53:22.292Z,11.50
2018-04-02T21:55:51.175Z,11.40
2018-04-02T21:58:20.049Z,11.40
2018-04-02T22:00:49.058Z,11.40
2018-04-02T22:03:17.166Z,11.40
2018-04-02T22:05:45.276Z,11.30
2018-04-02T22:08:13.413Z,11.30
2018-04-02T22:10:41.546Z,11.30
2018-04-02T22:13:10.447Z,11.30
2018-04-02T22:15:39.330Z,11.30
2018-04-02T22:18:08.198Z,11.30
2018-04-02T22:20:37.088Z,11.20
2018-04-02T22:23:05.215Z,11.10
2018-04-02T22:25:33.506Z,11.10
2018-04-02T22:28:01.792Z,11.10
2018-04-02T22:30:30.116Z,11.00
2018-04-02T22:32:58.985Z,11.00
2018-04-02T22:35:27.112Z,10.90
2018-04-02T22:37:55.235Z,10.90
2018-04-02T22:40:24.125Z,10.80
2018-04-02T22:42:52.855Z,10.80
2018-04-02T22:45:20.985Z,10.80
2018-04-02T22:47:49.866Z,10.70
2018-04-02T22:50:18.788Z,10.60
2018-04-02T22:52:46.921Z,10.60
2018-04-02T22:55:16.957Z,10.60
2018-04-02T22:57:45.701Z,10.60
2018-04-02T23:00:13.839Z,10.60
2018-04-02T23:02:41.978Z,10.60
2018-04-02T23:05:11.618Z,10.60
2018-04-02T23:07:40.706Z,10.60
2018-04-02T23:10:08.957Z,10.60
2018-04-02T23:12:37.073Z,10.60
2018-04-02T23:15:05.279Z,10.60
2018-04-02T23:17:33.569Z,10.60
2018-04-02T23:20:01.845Z,10.70
2018-04-02T23:22:41.794Z,10.70
2018-04-02T23:25:10.029Z,10.70
2018-04-02T23:27:38.192Z,10.70
2018-04-02T23:30:07.186Z,10.70
2018-04-02T23:32:35.378Z,10.60
2018-04-02T23:35:03.488Z,10.70
2018-04-02T23:37:31.616Z,10.70
2018-04-02T23:39:59.733Z,10.70
2018-04-02T23:42:27.939Z,10.70
2018-04-02T23:44:56.837Z,10.70
2018-04-02T23:47:26.001Z,10.80
2018-04-02T23:49:54.125Z,10.70
2018-04-02T23:52:22.257Z,10.80
2018-04-02T23:54:51.133Z,10.90
2018-04-02T23:57:20.768Z,10.80
2018-04-02T23:59:49.677Z,10.90
